Time;durP1;ratioP1;P1;durP2;ratioP2;P2;SDS_P1;SDS_P2;PMS_P1;PMS_P2;Temp;Humidity;BMP_temperature;BMP_pressure;BME280_temperature;BME280_humidity;BME280_pressure;Samples;Min_cycle;Max_cycle;Signal;HPM_P1;HPM_P2
2023/12/12 00:02:17;;;;;;;6.10;1.93;;;9.30;99.90;;;;;;5071750;28;20190;-69
2023/12/12 00:04:42;;;;;;;7.97;2.30;;;9.20;99.90;;;;;;5071847;28;20186;-69
2023/12/12 00:07:08;;;;;;;3.87;2.00;;;9.20;99.90;;;;;;5071825;28;20167;-69
2023/12/12 00:09:33;;;;;;;12.83;2.53;;;9.10;99.90;;;;;;5071660;28;20208;-69
2023/12/12 00:11:59;;;;;;;14.93;2.50;;;9.10;99.90;;;;;;5071640;28;20222;-69
2023/12/12 00:14:24;;;;;;;5.63;2.00;;;9.10;99.90;;;;;;5071592;28;20174;-69
2023/12/12 00:16:51;;;;;;;13.00;2.80;;;9.20;99.90;;;;;;5071770;28;20178;-69
2023/12/12 00:19:17;;;;;;;9.33;2.33;;;9.20;99.90;;;;;;5071637;28;20162;-69
2023/12/12 00:21:42;;;;;;;8.77;2.03;;;9.20;99.90;;;;;;5071493;28;20476;-70
2023/12/12 00:24:08;;;;;;;12.80;3.07;;;9.20;99.90;;;;;;5071614;28;20227;-70
2023/12/12 00:26:33;;;;;;;14.73;2.70;;;9.20;99.90;;;;;;5071541;28;20202;-69
2023/12/12 00:28:59;;;;;;;6.60;2.07;;;9.20;99.90;;;;;;5070360;28;20170;-70
2023/12/12 00:31:25;;;;;;;8.07;2.47;;;9.20;99.90;;;;;;5070277;28;20182;-69
2023/12/12 00:33:50;;;;;;;12.23;2.30;;;9.30;99.90;;;;;;5071701;28;20404;-69
2023/12/12 00:36:16;;;;;;;14.83;3.20;;;9.30;99.90;;;;;;5075592;28;20249;-70
2023/12/12 00:38:41;;;;;;;8.80;2.30;;;9.30;99.90;;;;;;5074049;28;20178;-70
2023/12/12 00:41:07;;;;;;;6.27;2.67;;;9.30;99.90;;;;;;5075473;28;20229;-69
2023/12/12 00:43:32;;;;;;;8.13;1.77;;;9.30;99.90;;;;;;5075244;28;20536;-70
2023/12/12 00:45:58;;;;;;;8.53;1.97;;;9.20;99.90;;;;;;5075241;28;20273;-69
2023/12/12 00:48:23;;;;;;;5.70;1.63;;;9.20;99.90;;;;;;5075037;28;20170;-69
2023/12/12 00:50:49;;;;;;;10.57;2.80;;;9.20;99.90;;;;;;5075163;28;20190;-69
2023/12/12 00:53:14;;;;;;;3.27;1.90;;;9.20;99.90;;;;;;5075045;28;20239;-70
2023/12/12 00:55:41;;;;;;;6.40;2.30;;;9.20;99.90;;;;;;5075207;28;20174;-69
2023/12/12 00:58:07;;;;;;;10.57;3.33;;;9.20;99.90;;;;;;5075096;28;20170;-69
2023/12/12 01:00:32;;;;;;;5.03;2.80;;;9.20;99.90;;;;;;5074765;28;20781;-69
2023/12/12 01:02:58;;;;;;;14.83;3.00;;;9.10;99.90;;;;;;5074992;28;20591;-70
2023/12/12 01:05:23;;;;;;;10.10;2.57;;;9.00;99.90;;;;;;5074979;28;20201;-69
2023/12/12 01:07:49;;;;;;;9.67;2.77;;;8.90;99.90;;;;;;5074926;28;20641;-70
2023/12/12 01:10:14;;;;;;;5.97;1.90;;;8.90;99.90;;;;;;5074399;28;20178;-70
2023/12/12 01:12:40;;;;;;;3.50;2.10;;;8.90;99.90;;;;;;5074631;28;20167;-69
2023/12/12 01:15:06;;;;;;;5.23;2.20;;;8.90;99.90;;;;;;5074914;28;20167;-69
2023/12/12 01:17:31;;;;;;;9.10;2.20;;;8.90;99.90;;;;;;5074633;28;20170;-69
2023/12/12 01:19:57;;;;;;;11.90;3.33;;;8.90;99.90;;;;;;5074090;28;20941;-69
2023/12/12 01:22:22;;;;;;;11.30;2.23;;;8.90;99.90;;;;;;5073974;28;20190;-69
2023/12/12 01:24:48;;;;;;;7.83;2.23;;;8.90;99.90;;;;;;5074517;28;20278;-69
2023/12/12 01:27:13;;;;;;;11.13;2.20;;;8.90;99.90;;;;;;5074368;28;20166;-69
2023/12/12 01:29:39;;;;;;;3.17;2.47;;;9.00;99.90;;;;;;5074336;28;20159;-69
2023/12/12 01:32:05;;;;;;;9.97;2.30;;;8.90;99.90;;;;;;5074007;28;20178;-69
2023/12/12 01:34:30;;;;;;;11.53;2.90;;;8.90;99.90;;;;;;5074070;28;20163;-69
2023/12/12 01:36:56;;;;;;;4.57;2.10;;;8.90;99.90;;;;;;5074411;28;20765;-70
2023/12/12 01:39:21;;;;;;;11.40;2.63;;;8.90;99.90;;;;;;5073985;28;20162;-70
2023/12/12 01:41:48;;;;;;;6.20;1.80;;;8.90;99.90;;;;;;5072794;28;20186;-69
2023/12/12 01:44:14;;;;;;;15.17;3.13;;;8.90;99.90;;;;;;5074246;28;20170;-69
2023/12/12 01:46:43;;;;;;;4.90;2.20;;;9.00;99.90;;;;;;5073463;28;20452;-70
2023/12/12 01:49:09;;;;;;;9.53;1.63;;;8.90;99.90;;;;;;5074036;28;20396;-69
2023/12/12 01:51:35;;;;;;;11.50;2.30;;;9.00;99.90;;;;;;5074054;28;20423;-70
2023/12/12 01:54:02;;;;;;;7.40;2.30;;;9.00;99.90;;;;;;5072673;28;20201;-69
2023/12/12 01:56:28;;;;;;;5.73;1.67;;;9.10;99.90;;;;;;5073844;28;20403;-69
2023/12/12 01:58:54;;;;;;;11.57;2.27;;;9.10;99.90;;;;;;5073823;28;20899;-69
2023/12/12 02:01:21;;;;;;;4.30;2.20;;;9.10;99.90;;;;;;5073934;28;20426;-69
2023/12/12 02:03:48;;;;;;;6.57;1.80;;;9.20;99.90;;;;;;5073852;28;20167;-69
2023/12/12 02:06:21;;;;;;;5.60;1.50;;;9.10;99.90;;;;;;5072578;28;20496;-69
2023/12/12 02:08:51;;;;;;;12.33;2.50;;;9.10;99.90;;;;;;5072349;28;20431;-69
2023/12/12 02:11:16;;;;;;;3.53;1.93;;;9.00;99.90;;;;;;5073661;28;20416;-69
2023/12/12 02:13:42;;;;;;;6.00;3.07;;;9.00;99.90;;;;;;5073569;28;20436;-69
2023/12/12 02:16:09;;;;;;;11.17;2.27;;;9.00;99.90;;;;;;5073776;28;20174;-69
2023/12/12 02:18:34;;;;;;;9.70;2.33;;;9.00;99.90;;;;;;5073576;28;20166;-69
2023/12/12 02:21:00;;;;;;;6.73;1.93;;;9.10;99.90;;;;;;5073507;28;21019;-69
2023/12/12 02:23:28;;;;;;;6.53;2.07;;;9.00;99.90;;;;;;5073433;28;20174;-69
2023/12/12 02:25:54;;;;;;;5.93;2.20;;;9.00;99.90;;;;;;5073354;28;20604;-69
2023/12/12 02:28:20;;;;;;;12.10;2.53;;;8.90;99.90;;;;;;5073227;28;20894;-70
2023/12/12 02:30:46;;;;;;;11.07;3.37;;;8.80;99.90;;;;;;5073276;28;20953;-70
2023/12/12 02:33:11;;;;;;;11.47;3.17;;;8.70;99.90;;;;;;5071966;28;20409;-70
2023/12/12 02:35:37;;;;;;;16.40;2.40;;;8.70;99.90;;;;;;5072049;28;20174;-69
2023/12/12 02:38:02;;;;;;;4.87;2.00;;;8.70;99.90;;;;;;5073162;28;20174;-69
2023/12/12 02:40:28;;;;;;;8.57;2.50;;;8.70;99.90;;;;;;5072900;28;20190;-69
2023/12/12 02:42:54;;;;;;;11.47;2.90;;;8.80;99.90;;;;;;5072985;28;20536;-69
2023/12/12 02:45:19;;;;;;;9.60;2.23;;;8.70;99.90;;;;;;5072974;28;20185;-70
2023/12/12 02:47:45;;;;;;;8.00;2.13;;;8.80;99.90;;;;;;5072953;28;20567;-69
2023/12/12 02:50:10;;;;;;;9.57;2.10;;;8.80;99.90;;;;;;5071346;28;20708;-70
2023/12/12 02:52:36;;;;;;;6.53;2.77;;;8.80;99.90;;;;;;5072966;28;20561;-69
2023/12/12 02:55:02;;;;;;;6.90;2.30;;;8.90;99.90;;;;;;5072651;28;20182;-69
2023/12/12 02:57:28;;;;;;;8.73;2.63;;;8.80;99.90;;;;;;5072118;28;20181;-69
2023/12/12 02:59:53;;;;;;;5.60;2.43;;;8.80;99.90;;;;;;5072285;28;20396;-69
2023/12/12 03:02:19;;;;;;;8.47;2.13;;;8.80;99.90;;;;;;5071261;28;20277;-69
2023/12/12 03:04:45;;;;;;;5.13;2.20;;;8.90;99.90;;;;;;5071346;28;20234;-70
2023/12/12 03:07:11;;;;;;;6.27;2.13;;;8.80;99.90;;;;;;5071378;28;20215;-69
2023/12/12 03:09:37;;;;;;;8.37;1.90;;;8.70;99.90;;;;;;5072507;28;20400;-70
2023/12/12 03:12:03;;;;;;;6.40;2.50;;;8.60;99.90;;;;;;5072698;28;20969;-70
2023/12/12 03:14:29;;;;;;;9.30;1.97;;;8.70;99.90;;;;;;5072471;28;20165;-69
2023/12/12 03:16:55;;;;;;;24.73;3.33;;;8.70;99.90;;;;;;5072469;28;20174;-69
2023/12/12 03:19:22;;;;;;;10.93;2.63;;;8.70;99.90;;;;;;5072354;28;20397;-69
2023/12/12 03:21:48;;;;;;;3.93;2.03;;;8.60;99.90;;;;;;5072353;28;20424;-69
2023/12/12 03:24:13;;;;;;;4.73;2.10;;;8.60;99.90;;;;;;5072395;28;20423;-69
2023/12/12 03:26:39;;;;;;;5.17;1.90;;;8.60;99.90;;;;;;5072229;28;20452;-69
2023/12/12 03:29:04;;;;;;;8.37;2.00;;;8.60;99.90;;;;;;5072217;28;20166;-69
2023/12/12 03:31:30;;;;;;;12.53;2.43;;;8.60;99.90;;;;;;5070757;28;20263;-70
2023/12/12 03:33:55;;;;;;;9.27;2.23;;;8.50;99.90;;;;;;5070774;28;20864;-69
2023/12/12 03:36:21;;;;;;;6.80;2.30;;;8.40;99.90;;;;;;5072219;28;20645;-69
2023/12/12 03:38:46;;;;;;;8.23;2.43;;;8.50;99.90;;;;;;5071818;28;20170;-69
2023/12/12 03:41:12;;;;;;;12.77;2.20;;;8.40;99.90;;;;;;5072008;28;20182;-69
2023/12/12 03:43:38;;;;;;;9.60;2.50;;;8.40;99.90;;;;;;5072233;28;20176;-69
2023/12/12 03:46:03;;;;;;;10.47;2.43;;;8.40;99.90;;;;;;5071863;28;20688;-69
2023/12/12 03:48:29;;;;;;;6.17;2.10;;;8.40;99.90;;;;;;5071926;28;20169;-69
2023/12/12 03:50:54;;;;;;;14.30;3.00;;;8.30;99.90;;;;;;5072044;28;20534;-69
2023/12/12 03:53:20;;;;;;;7.80;2.43;;;8.30;99.90;;;;;;5070533;28;20178;-69
2023/12/12 03:55:46;;;;;;;9.30;2.20;;;8.30;99.90;;;;;;5072152;28;20169;-70
2023/12/12 03:58:12;;;;;;;10.10;2.00;;;8.30;99.90;;;;;;5070772;28;20408;-69
2023/12/12 04:00:37;;;;;;;6.63;2.30;;;8.30;99.90;;;;;;5070422;28;20212;-69
2023/12/12 04:03:03;;;;;;;11.43;2.00;;;8.30;99.90;;;;;;5071902;28;20174;-69
2023/12/12 04:05:28;;;;;;;6.07;2.00;;;8.30;99.90;;;;;;5071755;28;20198;-69
2023/12/12 04:07:54;;;;;;;6.40;2.20;;;8.30;99.90;;;;;;5071877;28;20167;-69
2023/12/12 04:10:19;;;;;;;4.20;2.30;;;8.30;99.90;;;;;;5076860;28;20158;-69
2023/12/12 04:12:45;;;;;;;8.50;2.20;;;8.30;99.90;;;;;;5078479;28;20185;-69
2023/12/12 04:15:10;;;;;;;5.90;2.00;;;8.20;99.90;;;;;;5078552;28;20239;-69
2023/12/12 04:17:37;;;;;;;6.93;1.90;;;8.30;99.90;;;;;;5078451;28;20249;-69
2023/12/12 04:20:03;;;;;;;6.77;2.33;;;8.40;99.90;;;;;;5078285;28;20166;-69
2023/12/12 04:22:30;;;;;;;12.60;2.10;;;8.30;99.90;;;;;;5077078;28;20416;-69
2023/12/12 04:24:56;;;;;;;9.47;3.50;;;8.30;99.90;;;;;;5078313;28;20443;-69
2023/12/12 04:27:21;;;;;;;6.40;2.60;;;8.40;99.90;;;;;;5078363;28;20173;-69
2023/12/12 04:29:47;;;;;;;8.10;2.37;;;8.40;99.90;;;;;;5078144;28;20162;-69
2023/12/12 04:32:13;;;;;;;5.07;1.90;;;8.40;99.90;;;;;;5078257;28;20192;-70
2023/12/12 04:34:39;;;;;;;13.83;3.10;;;8.30;99.90;;;;;;5078346;28;20487;-69
2023/12/12 04:37:04;;;;;;;9.63;1.73;;;8.40;99.90;;;;;;5078226;28;20165;-69
2023/12/12 04:39:30;;;;;;;4.33;1.53;;;8.40;99.90;;;;;;5078098;28;20162;-69
2023/12/12 04:41:55;;;;;;;3.80;2.43;;;8.40;99.90;;;;;;5078019;28;20193;-69
2023/12/12 04:44:21;;;;;;;8.50;2.40;;;8.40;99.90;;;;;;5078188;28;20162;-69
2023/12/12 04:46:47;;;;;;;13.20;4.17;;;8.30;99.90;;;;;;5076826;28;20572;-69
2023/12/12 04:49:12;;;;;;;10.93;1.50;;;8.40;99.90;;;;;;5077926;28;20162;-69
2023/12/12 04:51:38;;;;;;;9.43;2.70;;;8.50;99.90;;;;;;5077999;28;20182;-69
2023/12/12 04:54:03;;;;;;;3.07;2.00;;;8.50;99.90;;;;;;5077938;28;20652;-69
2023/12/12 04:56:29;;;;;;;6.20;1.77;;;8.50;99.90;;;;;;5078375;28;20276;-69
2023/12/12 04:58:54;;;;;;;5.43;2.10;;;8.50;99.90;;;;;;5077773;28;20179;-69
2023/12/12 05:01:20;;;;;;;7.60;1.90;;;8.50;99.90;;;;;;5077840;28;20181;-70
2023/12/12 05:03:45;;;;;;;12.40;2.33;;;8.60;99.90;;;;;;5077949;28;20245;-69
2023/12/12 05:06:11;;;;;;;8.17;3.03;;;8.60;99.90;;;;;;5077887;28;20244;-69
2023/12/12 05:08:37;;;;;;;7.40;3.00;;;8.60;99.90;;;;;;5076497;28;20178;-69
2023/12/12 05:11:04;;;;;;;7.43;2.43;;;8.60;99.90;;;;;;5077840;28;20212;-69
2023/12/12 05:13:30;;;;;;;4.70;2.00;;;8.50;99.90;;;;;;5077873;28;20182;-69
2023/12/12 05:15:55;;;;;;;4.27;1.60;;;8.40;99.90;;;;;;5077881;28;20824;-69
2023/12/12 05:18:21;;;;;;;7.90;3.00;;;8.30;99.90;;;;;;5077734;28;20668;-69
2023/12/12 05:20:48;;;;;;;10.20;2.93;;;8.20;99.90;;;;;;5075620;28;20186;-70
2023/12/12 05:23:13;;;;;;;4.90;2.43;;;8.10;99.90;;;;;;5073311;28;20409;-70
2023/12/12 05:25:40;;;;;;;10.83;2.43;;;8.10;99.90;;;;;;5074526;28;20444;-69
2023/12/12 05:28:05;;;;;;;9.20;4.13;;;8.00;99.90;;;;;;5074526;28;20154;-69
2023/12/12 05:30:31;;;;;;;5.20;1.50;;;8.10;99.90;;;;;;5074323;28;20420;-69
2023/12/12 05:32:57;;;;;;;11.40;2.70;;;8.10;99.90;;;;;;5073234;28;20541;-71
2023/12/12 05:35:22;;;;;;;8.70;2.77;;;8.20;99.90;;;;;;5074484;28;20162;-69
2023/12/12 05:37:48;;;;;;;10.37;1.70;;;8.20;99.90;;;;;;5074306;28;20661;-70
2023/12/12 05:40:16;;;;;;;11.07;1.87;;;8.30;99.90;;;;;;5072623;28;20685;-69
2023/12/12 05:42:42;;;;;;;6.47;2.30;;;8.30;99.90;;;;;;5074218;28;20667;-69
2023/12/12 05:45:08;;;;;;;6.73;2.27;;;8.20;99.90;;;;;;5074193;28;20459;-69
2023/12/12 05:47:33;;;;;;;12.80;2.53;;;8.20;99.90;;;;;;5074172;28;20560;-70
2023/12/12 05:49:59;;;;;;;8.87;2.43;;;8.30;99.90;;;;;;5073989;28;20508;-69
2023/12/12 05:52:25;;;;;;;5.77;2.60;;;8.20;99.90;;;;;;5072692;28;20182;-70
2023/12/12 05:54:51;;;;;;;10.67;2.43;;;8.20;99.90;;;;;;5072708;28;20186;-70
2023/12/12 05:57:17;;;;;;;17.13;2.73;;;8.10;99.90;;;;;;5073996;28;20408;-69
2023/12/12 05:59:42;;;;;;;17.63;2.30;;;8.10;99.90;;;;;;5073808;28;20486;-69
2023/12/12 06:02:08;;;;;;;11.20;2.70;;;8.10;99.90;;;;;;5073776;28;20198;-69
2023/12/12 06:04:35;;;;;;;8.50;3.00;;;8.20;99.90;;;;;;5073841;28;20170;-70
2023/12/12 06:07:02;;;;;;;7.43;3.10;;;8.20;99.90;;;;;;5073801;28;20162;-69
2023/12/12 06:09:28;;;;;;;12.77;3.20;;;8.30;99.90;;;;;;5073825;28;20403;-69
2023/12/12 06:11:53;;;;;;;7.60;2.50;;;8.40;99.90;;;;;;5073565;28;20429;-69
2023/12/12 06:14:19;;;;;;;20.50;3.33;;;8.40;99.90;;;;;;5073880;28;20171;-69
2023/12/12 06:16:44;;;;;;;11.60;3.57;;;8.50;99.90;;;;;;5072568;28;20179;-70
2023/12/12 06:19:10;;;;;;;9.87;4.37;;;8.60;99.90;;;;;;5073424;28;20226;-69
2023/12/12 06:21:36;;;;;;;12.80;3.10;;;8.70;99.90;;;;;;5073475;28;20281;-69
2023/12/12 06:24:03;;;;;;;8.90;2.03;;;8.70;99.90;;;;;;5073425;28;20185;-70
2023/12/12 06:26:29;;;;;;;9.00;2.60;;;8.70;99.90;;;;;;5073370;28;20451;-69
2023/12/12 06:28:55;;;;;;;9.03;2.80;;;8.80;99.90;;;;;;5071916;28;20404;-69
2023/12/12 06:31:22;;;;;;;9.63;2.60;;;8.80;99.90;;;;;;5073291;28;20431;-69
2023/12/12 06:33:49;;;;;;;10.50;3.13;;;8.90;99.90;;;;;;5073177;28;20559;-71
2023/12/12 06:36:15;;;;;;;7.00;3.63;;;9.00;99.90;;;;;;5073150;28;20411;-69
2023/12/12 06:38:42;;;;;;;11.30;2.20;;;8.90;99.90;;;;;;5071728;28;20504;-70
2023/12/12 06:41:09;;;;;;;7.53;2.63;;;8.90;99.90;;;;;;5073078;28;20613;-70
2023/12/12 06:43:34;;;;;;;12.97;3.23;;;9.00;99.90;;;;;;5072096;28;20891;-70
2023/12/12 06:46:00;;;;;;;14.67;3.47;;;9.00;99.90;;;;;;5072996;28;20498;-69
2023/12/12 06:48:26;;;;;;;14.40;3.17;;;9.00;99.90;;;;;;5071609;28;20170;-70
2023/12/12 06:50:52;;;;;;;10.40;2.50;;;9.10;99.90;;;;;;5072823;28;20178;-69
2023/12/12 06:53:18;;;;;;;7.07;3.00;;;9.00;99.90;;;;;;5072741;28;20424;-70
2023/12/12 06:55:43;;;;;;;5.40;2.43;;;9.10;99.90;;;;;;5072869;28;20201;-70
2023/12/12 06:58:09;;;;;;;9.27;4.00;;;9.10;99.90;;;;;;5073061;28;20427;-70
2023/12/12 07:00:35;;;;;;;8.40;3.23;;;9.20;99.90;;;;;;5072587;28;20190;-70
2023/12/12 07:03:00;;;;;;;5.93;2.30;;;9.30;99.90;;;;;;5072646;28;20249;-69
2023/12/12 07:05:26;;;;;;;12.60;3.20;;;9.30;99.90;;;;;;5072585;28;21084;-69
2023/12/12 07:07:52;;;;;;;6.80;2.33;;;9.20;99.90;;;;;;5072676;28;20507;-69
2023/12/12 07:10:17;;;;;;;6.10;2.20;;;9.30;99.90;;;;;;5072347;28;20170;-69
2023/12/12 07:12:44;;;;;;;6.43;2.27;;;9.30;99.90;;;;;;5072414;28;20162;-69
2023/12/12 07:15:12;;;;;;;8.77;2.50;;;9.30;99.90;;;;;;5071354;28;20228;-70
2023/12/12 07:17:38;;;;;;;11.70;2.90;;;9.40;99.90;;;;;;5072468;28;21008;-70
2023/12/12 07:20:05;;;;;;;6.80;2.27;;;9.40;99.90;;;;;;5072170;28;20437;-69
2023/12/12 07:22:30;;;;;;;13.30;3.53;;;9.40;99.90;;;;;;5072276;28;20240;-69
2023/12/12 07:24:56;;;;;;;8.43;2.30;;;9.40;99.90;;;;;;5072662;28;20444;-70
2023/12/12 07:27:22;;;;;;;16.17;3.20;;;9.40;99.90;;;;;;5072038;28;20170;-70
2023/12/12 07:29:47;;;;;;;7.77;2.33;;;9.30;99.90;;;;;;5072177;28;20162;-69
2023/12/12 07:32:13;;;;;;;8.40;2.70;;;9.30;99.90;;;;;;5072203;28;20178;-69
2023/12/12 07:34:38;;;;;;;12.80;1.93;;;9.30;99.90;;;;;;5072325;28;20657;-70
2023/12/12 07:37:05;;;;;;;8.90;3.20;;;9.30;99.90;;;;;;5072271;28;20166;-70
2023/12/12 07:39:31;;;;;;;3.53;1.50;;;9.40;99.90;;;;;;5072130;28;20158;-70
2023/12/12 07:41:56;;;;;;;6.57;2.10;;;9.40;99.90;;;;;;5072320;28;20499;-69
2023/12/12 07:44:23;;;;;;;10.57;2.77;;;9.40;99.90;;;;;;5071751;28;20193;-69
2023/12/12 07:46:49;;;;;;;15.67;2.27;;;9.50;99.90;;;;;;5072111;28;20689;-69
2023/12/12 07:49:15;;;;;;;10.97;2.60;;;9.60;99.90;;;;;;5070548;28;20507;-69
2023/12/12 07:51:40;;;;;;;8.13;2.30;;;9.60;99.90;;;;;;5072099;28;20179;-69
2023/12/12 07:54:06;;;;;;;11.40;3.00;;;9.60;99.90;;;;;;5071749;28;20425;-69
2023/12/12 07:56:32;;;;;;;13.20;3.50;;;9.70;99.90;;;;;;5071952;28;20193;-69
2023/12/12 07:58:57;;;;;;;7.60;2.57;;;9.80;99.90;;;;;;5071820;28;20198;-69
2023/12/12 08:01:23;;;;;;;9.83;2.80;;;9.90;99.90;;;;;;5071905;28;20186;-69
2023/12/12 08:03:48;;;;;;;7.67;3.43;;;9.90;99.90;;;;;;5071841;28;20170;-69
2023/12/12 08:06:14;;;;;;;19.17;2.63;;;10.00;99.90;;;;;;5071838;28;20343;-70
2023/12/12 08:08:39;;;;;;;8.83;3.30;;;10.00;99.90;;;;;;5071584;28;20219;-69
2023/12/12 08:11:11;;;;;;;6.00;1.97;;;10.40;99.90;;;;;;5071783;28;20551;-70
2023/12/12 08:13:37;;;;;;;11.10;2.63;;;11.20;99.90;;;;;;5071876;28;20253;-70
2023/12/12 08:16:03;;;;;;;13.00;2.67;;;12.10;99.90;;;;;;5071960;28;20499;-70
2023/12/12 08:18:28;;;;;;;7.00;3.10;;;13.10;99.90;;;;;;5071594;28;20178;-70
2023/12/12 08:20:54;;;;;;;4.20;2.67;;;14.20;99.90;;;;;;5071658;28;20841;-70
2023/12/12 08:23:19;;;;;;;7.13;2.50;;;15.20;99.90;;;;;;5071557;28;20183;-70
2023/12/12 08:25:45;;;;;;;10.83;2.60;;;16.30;99.90;;;;;;5071678;28;20197;-70
2023/12/12 08:28:10;;;;;;;3.93;1.57;;;17.10;99.90;;;;;;5071706;28;20177;-70
2023/12/12 08:30:36;;;;;;;5.97;2.27;;;17.80;99.90;;;;;;5071464;28;20221;-70
2023/12/12 08:33:02;;;;;;;7.10;2.90;;;18.30;99.90;;;;;;5071427;28;20247;-70
2023/12/12 08:35:27;;;;;;;12.97;3.67;;;18.30;99.90;;;;;;5071609;28;20416;-70
2023/12/12 08:37:53;;;;;;;4.80;2.10;;;18.10;99.90;;;;;;5071525;28;20171;-70
2023/12/12 08:40:19;;;;;;;6.00;2.33;;;17.40;99.90;;;;;;5071274;28;20667;-70
2023/12/12 08:42:44;;;;;;;5.73;2.10;;;16.40;99.90;;;;;;5071254;28;20173;-69
2023/12/12 08:45:10;;;;;;;4.50;2.10;;;15.60;99.90;;;;;;5071536;28;20194;-70
2023/12/12 08:47:36;;;;;;;10.77;5.10;;;15.00;99.90;;;;;;5071608;28;20223;-70
2023/12/12 08:50:03;;;;;;;11.27;4.43;;;14.40;99.90;;;;;;5071406;28;20296;-69
2023/12/12 08:52:31;;;;;;;3.50;2.10;;;14.00;99.90;;;;;;5071472;28;20412;-70
2023/12/12 08:54:57;;;;;;;4.57;2.30;;;13.70;99.90;;;;;;5071501;28;20795;-69
2023/12/12 08:57:22;;;;;;;8.47;3.70;;;13.50;99.90;;;;;;5072860;28;20499;-69
2023/12/12 08:59:48;;;;;;;4.80;3.13;;;13.30;99.90;;;;;;5074729;28;20198;-69
2023/12/12 09:02:14;;;;;;;8.70;3.37;;;13.30;99.90;;;;;;5073652;28;20289;-69
2023/12/12 09:04:39;;;;;;;5.60;3.13;;;13.10;99.90;;;;;;5075161;28;20170;-69
2023/12/12 09:07:05;;;;;;;6.40;2.40;;;12.80;99.90;;;;;;5075016;28;20216;-70
2023/12/12 09:09:31;;;;;;;6.83;2.60;;;12.70;99.90;;;;;;5074798;28;20243;-70
2023/12/12 09:11:58;;;;;;;6.40;3.20;;;12.60;99.90;;;;;;5074868;28;20186;-69
2023/12/12 09:14:23;;;;;;;7.83;3.30;;;12.90;99.90;;;;;;5074916;28;20491;-69
2023/12/12 09:16:49;;;;;;;10.33;3.60;;;13.20;99.90;;;;;;5074804;28;20479;-68
2023/12/12 09:19:16;;;;;;;8.83;3.23;;;13.30;99.90;;;;;;5074581;28;20261;-69
2023/12/12 09:21:42;;;;;;;5.70;3.37;;;13.30;99.90;;;;;;5074632;28;20208;-69
2023/12/12 09:24:07;;;;;;;13.93;3.50;;;13.20;99.90;;;;;;5074650;28;20495;-69
2023/12/12 09:26:33;;;;;;;8.23;3.20;;;13.10;99.90;;;;;;5072974;28;20202;-68
2023/12/12 09:28:59;;;;;;;9.43;3.57;;;13.00;99.90;;;;;;5072958;28;20717;-68
2023/12/12 09:31:28;;;;;;;5.27;2.97;;;12.80;99.90;;;;;;5074292;28;20186;-68
2023/12/12 09:33:54;;;;;;;7.10;3.27;;;12.80;99.90;;;;;;5074395;28;20165;-68
2023/12/12 09:36:20;;;;;;;9.30;3.73;;;12.90;99.90;;;;;;5074411;28;20967;-68
2023/12/12 09:38:46;;;;;;;10.37;3.23;;;13.00;99.90;;;;;;5074320;28;20453;-68
2023/12/12 09:41:17;;;;;;;6.73;2.67;;;13.20;99.90;;;;;;5074379;28;20186;-68
2023/12/12 09:43:44;;;;;;;7.23;3.03;;;13.20;99.90;;;;;;5074436;28;20166;-68
2023/12/12 09:46:11;;;;;;;4.33;2.63;;;13.10;99.90;;;;;;5074302;28;20456;-68
2023/12/12 09:48:37;;;;;;;10.03;4.20;;;13.00;99.90;;;;;;5074155;28;20805;-68
2023/12/12 09:51:05;;;;;;;10.50;2.50;;;12.60;99.90;;;;;;5072897;28;20442;-68
2023/12/12 09:53:35;;;;;;;5.57;2.90;;;12.50;99.90;;;;;;5073958;28;20420;-69
2023/12/12 09:56:05;;;;;;;12.00;3.97;;;12.30;99.90;;;;;;5074336;28;20454;-68
2023/12/12 09:58:31;;;;;;;10.20;3.67;;;12.20;99.90;;;;;;5073956;28;20443;-68
2023/12/12 10:01:01;;;;;;;5.80;3.60;;;12.00;99.90;;;;;;5073938;28;20997;-69
2023/12/12 10:03:28;;;;;;;6.50;3.37;;;11.90;99.90;;;;;;5073872;28;20247;-68
2023/12/12 10:05:56;;;;;;;7.87;3.43;;;11.80;99.90;;;;;;5073897;28;20982;-68
2023/12/12 10:08:23;;;;;;;10.00;3.40;;;11.70;99.90;;;;;;5073242;28;20400;-68
2023/12/12 10:10:52;;;;;;;6.40;3.80;;;11.70;99.90;;;;;;5073766;28;20438;-68
2023/12/12 10:13:19;;;;;;;8.30;2.50;;;11.70;99.90;;;;;;5073649;28;20405;-68
2023/12/12 10:15:44;;;;;;;17.13;4.90;;;11.70;99.90;;;;;;5073618;28;20397;-68
2023/12/12 10:18:10;;;;;;;16.20;3.97;;;11.70;99.90;;;;;;5073677;28;20416;-69
2023/12/12 10:20:35;;;;;;;8.80;3.77;;;11.70;99.90;;;;;;5072233;28;20573;-69
2023/12/12 10:23:02;;;;;;;3.43;2.60;;;11.80;99.90;;;;;;5073493;28;20170;-68
2023/12/12 10:25:29;;;;;;;6.90;3.30;;;12.00;99.90;;;;;;5073427;28;20201;-68
2023/12/12 10:27:56;;;;;;;8.30;2.90;;;12.00;99.90;;;;;;5073518;28;20408;-70
2023/12/12 10:30:22;;;;;;;6.60;4.00;;;11.80;99.90;;;;;;5073052;28;20931;-70
2023/12/12 10:32:51;;;;;;;8.17;2.87;;;11.80;99.90;;;;;;5073305;28;20490;-72
2023/12/12 10:35:17;;;;;;;11.63;3.30;;;11.70;99.90;;;;;;5073339;28;20417;-70
2023/12/12 10:37:42;;;;;;;16.23;4.40;;;11.60;99.90;;;;;;5073233;28;20415;-70
2023/12/12 10:40:19;;;;;;;6.60;3.33;;;11.60;99.90;;;;;;5072611;28;20420;-71
2023/12/12 10:42:45;;;;;;;9.53;4.10;;;11.60;99.90;;;;;;5072843;28;20169;-70
2023/12/12 10:45:12;;;;;;;9.70;3.00;;;11.50;99.90;;;;;;5072696;28;20452;-70
2023/12/12 10:47:53;;;;;;;8.77;3.03;;;11.40;99.90;;;;;;5072838;28;20178;-72
2023/12/12 10:50:19;;;;;;;8.07;3.70;;;11.20;99.90;;;;;;5072719;28;20408;-70
2023/12/12 10:52:46;;;;;;;14.20;3.57;;;11.10;99.90;;;;;;5072597;28;20409;-70
2023/12/12 10:55:14;;;;;;;13.13;3.70;;;11.00;99.90;;;;;;5072853;28;20546;-69
2023/12/12 10:57:43;;;;;;;9.90;2.80;;;10.90;99.90;;;;;;5072926;28;20400;-69
2023/12/12 11:00:14;;;;;;;8.03;4.10;;;10.80;99.90;;;;;;5072497;28;20418;-69
2023/12/12 11:02:44;;;;;;;13.93;3.40;;;10.60;99.90;;;;;;5071381;28;20778;-69
2023/12/12 11:05:11;;;;;;;8.53;3.20;;;10.50;99.90;;;;;;5072729;28;20456;-69
2023/12/12 11:07:38;;;;;;;6.40;3.13;;;10.50;99.90;;;;;;5071788;28;20788;-70
2023/12/12 11:10:08;;;;;;;9.73;4.73;;;10.60;99.90;;;;;;5071516;28;21010;-69
2023/12/12 11:12:36;;;;;;;5.87;3.33;;;10.60;99.90;;;;;;5072589;28;20499;-69
2023/12/12 11:15:04;;;;;;;6.13;3.70;;;10.70;99.90;;;;;;5072441;28;20435;-70
2023/12/12 11:17:30;;;;;;;8.73;3.30;;;10.70;99.90;;;;;;5072410;28;20411;-69
2023/12/12 11:19:56;;;;;;;15.03;4.70;;;10.70;99.90;;;;;;5071421;28;20491;-69
2023/12/12 11:22:41;;;;;;;15.10;4.77;;;10.70;99.90;;;;;;5072213;28;20186;-70
2023/12/12 11:25:10;;;;;;;13.93;3.93;;;10.70;99.90;;;;;;5069168;28;20449;-70
2023/12/12 11:27:39;;;;;;;9.63;4.10;;;10.80;99.90;;;;;;5062554;28;20411;-69
2023/12/12 11:30:06;;;;;;;9.40;4.30;;;10.80;99.90;;;;;;5070429;28;20408;-70
2023/12/12 11:32:34;;;;;;;4.13;2.90;;;10.80;99.90;;;;;;5072049;28;20435;-70
2023/12/12 11:35:04;;;;;;;9.47;3.70;;;10.70;99.90;;;;;;5072073;28;20983;-70
2023/12/12 11:37:40;;;;;;;10.57;3.80;;;10.70;99.90;;;;;;5065923;28;20424;-70
2023/12/12 11:40:09;;;;;;;5.00;3.23;;;10.50;99.90;;;;;;5067574;28;20416;-70
2023/12/12 11:42:34;;;;;;;8.33;2.93;;;10.50;99.90;;;;;;5070693;28;20421;-70
2023/12/12 11:45:01;;;;;;;3.80;2.73;;;10.50;99.90;;;;;;5072070;28;20444;-70
2023/12/12 11:47:29;;;;;;;12.53;5.13;;;10.50;99.90;;;;;;5072104;28;20223;-69
2023/12/12 11:50:10;;;;;;;6.83;4.03;;;10.60;99.90;;;;;;5071910;28;20405;-71
2023/12/12 11:52:39;;;;;;;9.93;3.60;;;10.70;99.90;;;;;;5072005;28;20404;-69
2023/12/12 11:55:05;;;;;;;14.80;4.70;;;10.90;99.90;;;;;;5071964;28;20439;-70
2023/12/12 11:57:31;;;;;;;5.53;3.90;;;10.90;99.90;;;;;;5072176;28;20447;-71
2023/12/12 12:00:01;;;;;;;19.47;4.23;;;10.90;99.90;;;;;;5071736;28;20448;-70
2023/12/12 12:02:28;;;;;;;6.87;3.43;;;11.00;99.90;;;;;;5071760;28;20190;-70
2023/12/12 12:04:53;;;;;;;6.50;2.80;;;11.00;99.90;;;;;;5071853;28;20412;-72
2023/12/12 12:07:19;;;;;;;12.20;3.43;;;11.00;99.90;;;;;;5071915;28;20491;-71
2023/12/12 12:09:47;;;;;;;11.53;3.50;;;10.90;99.90;;;;;;5071622;28;20400;-71
2023/12/12 12:12:13;;;;;;;6.07;3.10;;;10.90;99.90;;;;;;5070324;28;20186;-70
2023/12/12 12:14:39;;;;;;;6.60;2.70;;;10.90;99.90;;;;;;5071769;28;20483;-70
2023/12/12 12:17:05;;;;;;;6.53;3.57;;;10.80;99.90;;;;;;5071792;28;20492;-70
2023/12/12 12:19:35;;;;;;;10.70;3.90;;;10.80;99.90;;;;;;5071508;28;20166;-70
2023/12/12 12:22:08;;;;;;;17.03;3.90;;;10.80;99.90;;;;;;5071576;28;20186;-70
2023/12/12 12:24:44;;;;;;;10.30;3.63;;;10.80;99.90;;;;;;5071739;28;20404;-70
2023/12/12 12:27:10;;;;;;;10.63;4.40;;;10.80;99.90;;;;;;5071614;28;20439;-70
2023/12/12 12:29:36;;;;;;;12.67;4.40;;;10.80;99.90;;;;;;5070196;28;20462;-70
2023/12/12 12:32:10;;;;;;;10.40;2.93;;;10.80;99.90;;;;;;5075515;28;20512;-69
2023/12/12 12:34:36;;;;;;;13.73;6.03;;;10.60;99.90;;;;;;5075661;28;20158;-71
2023/12/12 12:37:02;;;;;;;6.97;2.80;;;10.70;99.90;;;;;;5075621;28;20408;-71
2023/12/12 12:39:28;;;;;;;8.97;3.20;;;10.60;99.90;;;;;;5075352;28;20173;-70
2023/12/12 12:41:55;;;;;;;10.30;3.27;;;10.70;99.90;;;;;;5075300;28;20301;-70
2023/12/12 12:44:21;;;;;;;11.23;3.23;;;10.60;99.90;;;;;;5074332;28;20458;-70
2023/12/12 12:46:49;;;;;;;9.90;3.50;;;10.60;99.90;;;;;;5075344;28;20476;-70